Time;durP1;ratioP1;P1;durP2;ratioP2;P2;SDS_P1;SDS_P2;PMS_P1;PMS_P2;Temp;Humidity;BMP_temperature;BMP_pressure;BME280_temperature;BME280_humidity;BME280_pressure;Samples;Min_cycle;Max_cycle;Signal;HPM_P1;HPM_P2
2023/03/11 00:01:42;;;;;;;7.40;2.80;;;;;;;-0.52;100.00;94515.06;5092013;28;20459;-76
2023/03/11 00:04:09;;;;;;;2.27;2.17;;;;;;;-0.55;100.00;94519.00;5076631;28;20825;-76
2023/03/11 00:06:36;;;;;;;3.20;2.90;;;;;;;-0.63;100.00;94530.91;5096142;28;20473;-76
2023/03/11 00:09:03;;;;;;;2.20;1.90;;;;;;;-0.45;100.00;94539.50;5094772;28;20876;-76
2023/03/11 00:11:30;;;;;;;1.80;1.70;;;;;;;-0.45;100.00;94562.88;5077763;28;20446;-76
2023/03/11 00:13:57;;;;;;;4.10;2.83;;;;;;;-0.49;100.00;94568.97;5077805;28;20512;-76
2023/03/11 00:16:24;;;;;;;3.20;2.90;;;;;;;-0.33;100.00;94585.66;5090807;28;20431;-76
2023/03/11 00:18:51;;;;;;;3.13;2.60;;;;;;;-0.37;100.00;94587.34;5057805;28;20446;-76
2023/03/11 00:21:19;;;;;;;3.83;3.13;;;;;;;-0.38;100.00;94599.56;5078107;28;20435;-76
2023/03/11 00:23:46;;;;;;;2.63;2.43;;;;;;;-0.38;100.00;94602.16;5095591;28;20470;-76
2023/03/11 00:26:13;;;;;;;3.20;3.00;;;;;;;-0.52;100.00;94621.47;5059904;28;20539;-76
2023/03/11 00:28:39;;;;;;;2.77;2.43;;;;;;;-0.70;100.00;94589.47;5074005;28;20444;-76
2023/03/11 00:31:11;;;;;;;2.60;2.40;;;;;;;-0.50;100.00;94619.34;5073846;28;20442;-76
2023/03/11 00:33:38;;;;;;;2.97;2.77;;;;;;;-0.56;100.00;94617.91;5073855;28;20475;-76
2023/03/11 00:36:05;;;;;;;3.63;2.40;;;;;;;-0.82;100.00;94602.97;5073877;28;20442;-76
2023/03/11 00:38:32;;;;;;;3.63;3.33;;;;;;;-0.69;100.00;94632.50;5056717;28;20627;-76
2023/03/11 00:41:00;;;;;;;3.87;3.13;;;;;;;-0.67;100.00;94612.22;5083692;28;20809;-76
2023/03/11 00:43:30;;;;;;;2.53;2.33;;;;;;;-0.51;100.00;94646.34;5081424;28;20508;-76
2023/03/11 00:45:56;;;;;;;3.07;2.80;;;;;;;-0.59;100.00;94632.25;5093884;28;20551;-76
2023/03/11 00:48:23;;;;;;;4.50;2.77;;;;;;;-0.73;100.00;94626.38;5062945;28;20438;-76
2023/03/11 00:50:50;;;;;;;2.33;2.23;;;;;;;-0.66;100.00;94642.31;5073506;28;20443;-76
2023/03/11 00:53:17;;;;;;;4.33;2.93;;;;;;;-0.46;100.00;94654.78;5087801;28;20997;-76
2023/03/11 00:55:43;;;;;;;3.67;3.00;;;;;;;-0.78;100.00;94606.53;5077457;28;20793;-76
2023/03/11 00:58:13;;;;;;;4.63;2.60;;;;;;;-0.35;100.00;94668.28;5062268;28;20853;-76
2023/03/11 01:00:44;;;;;;;2.50;2.20;;;;;;;-0.55;100.00;94632.44;5073446;28;20479;-76
2023/03/11 01:03:11;;;;;;;2.60;2.40;;;;;;;-0.65;100.00;94623.09;5073181;28;20551;-76
2023/03/11 01:05:37;;;;;;;1.73;1.63;;;;;;;-0.35;100.00;94682.03;5082773;28;20477;-76
2023/03/11 01:08:04;;;;;;;2.50;2.30;;;;;;;-0.48;100.00;94646.53;5076747;28;20531;-76
2023/03/11 01:10:33;;;;;;;3.30;3.00;;;;;;;-0.55;100.00;94661.72;5094715;28;20427;-76
2023/03/11 01:13:00;;;;;;;8.77;3.20;;;;;;;-0.54;100.00;94665.09;5076518;28;20589;-75
2023/03/11 01:15:33;;;;;;;3.87;3.57;;;;;;;-0.42;100.00;94678.28;5055779;28;20948;-74
2023/03/11 01:18:00;;;;;;;3.37;2.90;;;;;;;-0.33;100.00;94694.69;5056427;28;20547;-75
2023/03/11 01:20:28;;;;;;;3.50;2.67;;;;;;;-0.25;100.00;94688.03;5067475;28;20530;-75
2023/03/11 01:22:55;;;;;;;2.83;2.63;;;;;;;-0.39;100.00;94695.91;5080923;28;20448;-74
2023/03/11 01:25:23;;;;;;;4.17;2.77;;;;;;;-0.30;100.00;94704.47;5065100;28;20446;-75
2023/03/11 01:27:49;;;;;;;3.43;3.13;;;;;;;-0.46;100.00;94692.94;5086478;28;21121;-74
2023/03/11 01:30:22;;;;;;;3.43;3.13;;;;;;;-0.34;100.00;94725.09;5068170;28;20530;-74
2023/03/11 01:32:51;;;;;;;2.50;2.30;;;;;;;-0.35;100.00;94738.38;5079231;28;20455;-74
2023/03/11 01:35:20;;;;;;;2.00;1.80;;;;;;;-0.31;100.00;94741.91;5079810;28;20452;-74
2023/03/11 01:37:47;;;;;;;2.40;2.03;;;;;;;-0.33;100.00;94746.63;5066423;28;20428;-74
2023/03/11 01:40:23;;;;;;;2.47;1.80;;;;;;;-0.43;100.00;94749.44;5073280;28;20550;-74
2023/03/11 01:42:49;;;;;;;3.00;2.63;;;;;;;-0.42;100.00;94759.53;5068045;28;20460;-74
2023/03/11 01:45:39;;;;;;;3.67;3.40;;;;;;;-0.44;100.00;94756.47;5069656;28;20965;-75
2023/03/11 01:48:08;;;;;;;2.43;2.10;;;;;;;-0.38;100.00;94750.09;5092664;28;20493;-74
2023/03/11 01:50:42;;;;;;;2.20;2.00;;;;;;;-0.43;100.00;94749.44;5087319;28;20440;-75
2023/03/11 01:53:10;;;;;;;4.17;2.93;;;;;;;-0.45;100.00;94756.75;5072416;28;20463;-75
2023/03/11 01:55:39;;;;;;;2.00;1.90;;;;;;;-0.59;100.00;94733.47;5042596;28;20539;-74
2023/03/11 01:58:10;;;;;;;2.60;2.40;;;;;;;-0.65;100.00;94732.81;5069080;28;20944;-74
2023/03/11 02:00:37;;;;;;;2.60;2.40;;;;;;;-0.79;100.00;94718.38;5080018;28;20431;-75
2023/03/11 02:03:17;;;;;;;1.73;1.63;;;;;;;-0.62;100.00;94739.25;5062299;28;20555;-74
2023/03/11 02:05:46;;;;;;;2.27;2.07;;;;;;;-0.64;100.00;94751.75;5065728;28;20469;-74
2023/03/11 02:08:13;;;;;;;2.47;2.27;;;;;;;-0.56;100.00;94756.22;5072180;28;20433;-75
2023/03/11 02:10:41;;;;;;;1.93;1.83;;;;;;;-0.49;100.00;94774.75;5055491;28;20436;-74
2023/03/11 02:13:09;;;;;;;2.00;1.90;;;;;;;-0.47;100.00;94779.66;5071898;28;20451;-74
2023/03/11 02:15:36;;;;;;;2.20;2.00;;;;;;;-0.74;100.00;94765.69;5066151;28;20438;-74
2023/03/11 02:18:06;;;;;;;2.70;2.20;;;;;;;-0.52;100.00;94784.97;5078515;28;20431;-74
2023/03/11 02:21:02;;;;;;;1.53;1.43;;;;;;;-0.47;100.00;94788.19;5075371;28;20439;-74
2023/03/11 02:23:37;;;;;;;1.63;1.53;;;;;;;-0.53;100.00;94783.44;5070474;28;20440;-74
2023/03/11 02:26:31;;;;;;;2.63;2.37;;;;;;;-0.52;100.00;94808.31;5078043;28;20439;-74
2023/03/11 02:28:59;;;;;;;1.90;1.80;;;;;;;-0.62;100.00;94794.50;5078409;28;20971;-75
2023/03/11 02:31:27;;;;;;;2.80;2.50;;;;;;;-0.76;100.00;94767.81;5084654;28;20432;-74
2023/03/11 02:33:58;;;;;;;2.37;2.00;;;;;;;-0.67;100.00;94792.03;5054885;28;20484;-74
2023/03/11 02:36:35;;;;;;;3.00;2.57;;;;;;;-0.65;100.00;94805.47;5079790;28;20435;-74
2023/03/11 02:39:04;;;;;;;2.13;1.90;;;;;;;-0.73;100.00;94792.41;5068250;28;20458;-74
2023/03/11 02:41:36;;;;;;;1.53;1.37;;;;;;;-0.78;100.00;94802.91;5066033;28;20809;-74
2023/03/11 02:44:07;;;;;;;2.63;1.50;;;;;;;-0.95;100.00;94778.31;5086549;28;20944;-74
2023/03/11 02:46:35;;;;;;;1.97;1.87;;;;;;;-0.91;100.00;94791.50;5083357;28;20455;-74
2023/03/11 02:49:02;;;;;;;1.60;1.50;;;;;;;-0.75;100.00;94804.91;5061262;28;20534;-74
2023/03/11 02:51:29;;;;;;;2.00;1.90;;;;;;;-0.99;100.00;94805.13;5062278;28;20932;-74
2023/03/11 02:54:00;;;;;;;1.50;1.37;;;;;;;-0.70;100.00;94831.50;5067962;28;20454;-74
2023/03/11 02:56:28;;;;;;;1.70;1.60;;;;;;;-0.85;100.00;94805.13;5084591;28;20435;-74
2023/03/11 02:58:55;;;;;;;2.70;2.50;;;;;;;-0.95;100.00;94803.50;5091340;28;20939;-74
2023/03/11 03:01:21;;;;;;;2.17;1.97;;;;;;;-0.79;100.00;94819.53;5061000;28;20949;-74
2023/03/11 03:03:49;;;;;;;2.20;1.77;;;;;;;-0.92;100.00;94797.75;5054634;28;21043;-74
2023/03/11 03:06:16;;;;;;;2.07;1.73;;;;;;;-0.67;100.00;94854.31;5054658;28;20505;-74
2023/03/11 03:08:42;;;;;;;1.53;1.43;;;;;;;-0.80;100.00;94856.88;5067212;28;20436;-74
2023/03/11 03:11:09;;;;;;;0.93;0.93;;;;;;;-0.87;100.00;94843.56;5084589;28;20442;-74
2023/03/11 03:13:36;;;;;;;1.60;1.50;;;;;;;-0.97;100.00;94857.47;5061444;28;20487;-74
2023/03/11 03:16:03;;;;;;;1.90;1.53;;;;;;;-0.92;100.00;94865.19;5078188;28;20469;-74
2023/03/11 03:18:31;;;;;;;1.30;1.20;;;;;;;-0.95;100.00;94874.28;5054488;28;20433;-74
2023/03/11 03:20:58;;;;;;;1.50;1.40;;;;;;;-0.98;100.00;94871.50;5071992;28;20436;-74
2023/03/11 03:23:25;;;;;;;2.50;2.30;;;;;;;-0.99;100.00;94869.97;5066483;28;20456;-74
2023/03/11 03:25:52;;;;;;;2.50;2.30;;;;;;;-1.21;100.00;94858.44;5084406;28;20936;-74
2023/03/11 03:28:19;;;;;;;3.07;1.70;;;;;;;-1.00;100.00;94876.22;5070608;28;20460;-74
2023/03/11 03:30:45;;;;;;;1.63;1.53;;;;;;;-1.04;100.00;94883.03;5054200;28;20956;-74
2023/03/11 03:33:13;;;;;;;1.83;1.73;;;;;;;-1.06;100.00;94885.16;5050533;28;21057;-74
2023/03/11 03:35:42;;;;;;;2.07;1.97;;;;;;;-1.13;100.00;94876.97;5082291;28;20578;-74
2023/03/11 03:38:16;;;;;;;2.13;1.93;;;;;;;-1.10;100.00;94850.47;5055074;28;20436;-74
2023/03/11 03:40:47;;;;;;;2.83;2.00;;;;;;;-1.29;100.00;94856.53;5057857;28;20428;-74
2023/03/11 03:43:16;;;;;;;5.10;1.33;;;;;;;-1.08;100.00;94871.69;5079989;28;20944;-74
2023/03/11 03:45:44;;;;;;;1.80;1.70;;;;;;;-1.20;100.00;94893.69;5071336;28;20525;-74
2023/03/11 03:48:11;;;;;;;1.77;1.60;;;;;;;-1.36;100.00;94848.34;5078059;28;20466;-74
2023/03/11 03:50:42;;;;;;;3.37;1.97;;;;;;;-1.13;100.00;94879.56;5090362;28;20447;-74
2023/03/11 03:53:12;;;;;;;1.80;1.70;;;;;;;-1.08;100.00;94895.03;5060534;28;20476;-74
2023/03/11 03:55:39;;;;;;;1.90;1.80;;;;;;;-1.21;100.00;94884.34;5077641;28;20966;-74
2023/03/11 03:58:05;;;;;;;1.83;1.73;;;;;;;-1.39;100.00;94861.13;5073839;28;20514;-74
2023/03/11 04:00:34;;;;;;;1.93;1.83;;;;;;;-1.27;100.00;94890.69;5090678;28;20797;-74
2023/03/11 04:03:02;;;;;;;1.73;1.63;;;;;;;-1.35;100.00;94899.13;5076920;28;20463;-74
2023/03/11 04:05:45;;;;;;;2.37;2.10;;;;;;;-1.42;100.00;94903.16;5080216;28;20493;-74
2023/03/11 04:08:12;;;;;;;1.57;1.43;;;;;;;-1.59;100.00;94880.38;5083966;28;20456;-74
2023/03/11 04:10:39;;;;;;;2.23;2.03;;;;;;;-1.40;100.00;94901.03;5070251;28;20440;-76
2023/03/11 04:13:06;;;;;;;2.00;1.80;;;;;;;-1.34;100.00;94900.66;5053601;28;20995;-76
2023/03/11 04:15:33;;;;;;;2.00;1.90;;;;;;;-1.41;100.00;94908.06;5070113;28;20444;-76
2023/03/11 04:18:00;;;;;;;2.17;1.93;;;;;;;-1.56;100.00;94885.75;5053631;28;20460;-76
2023/03/11 04:20:27;;;;;;;2.03;1.93;;;;;;;-1.52;100.00;94901.50;5070153;28;20439;-76
2023/03/11 04:22:53;;;;;;;1.93;1.83;;;;;;;-1.50;100.00;94912.34;5069987;28;20502;-76
2023/03/11 04:25:22;;;;;;;2.13;1.93;;;;;;;-1.90;100.00;94867.13;5053792;28;20440;-76
2023/03/11 04:27:51;;;;;;;2.00;1.90;;;;;;;-1.42;100.00;94924.66;5071489;28;20967;-76
2023/03/11 04:30:18;;;;;;;2.03;1.77;;;;;;;-1.66;100.00;94904.06;5090190;28;20986;-76
2023/03/11 04:32:47;;;;;;;1.70;1.60;;;;;;;-1.53;100.00;94903.31;5090131;28;20490;-76
2023/03/11 04:35:15;;;;;;;2.00;1.77;;;;;;;-1.50;100.00;94901.97;5090076;28;21000;-76
2023/03/11 04:37:41;;;;;;;1.30;1.20;;;;;;;-1.25;100.00;94945.63;5073452;28;20431;-76
2023/03/11 04:40:10;;;;;;;1.83;1.60;;;;;;;-1.24;100.00;94949.75;5063547;28;20444;-76
2023/03/11 04:42:37;;;;;;;1.57;1.47;;;;;;;-1.22;100.00;94952.03;5049941;28;20457;-76
2023/03/11 04:45:06;;;;;;;2.03;1.80;;;;;;;-1.37;100.00;94934.16;5056970;28;20445;-76
2023/03/11 04:47:34;;;;;;;1.30;1.20;;;;;;;-1.34;100.00;94949.13;5080774;28;21022;-74
2023/03/11 04:50:02;;;;;;;2.03;1.93;;;;;;;-1.56;100.00;94940.16;5083830;28;20499;-74
2023/03/11 04:52:29;;;;;;;1.67;1.57;;;;;;;-1.47;100.00;94953.22;5056985;28;21048;-74
2023/03/11 04:54:56;;;;;;;1.90;1.80;;;;;;;-1.55;100.00;94940.94;5073323;28;20443;-74
2023/03/11 04:57:23;;;;;;;1.63;1.50;;;;;;;-1.41;100.00;94959.88;5056910;28;20440;-74
2023/03/11 04:59:49;;;;;;;2.20;2.10;;;;;;;-1.69;100.00;94925.34;5086955;28;20872;-74
2023/03/11 05:02:17;;;;;;;1.00;0.90;;;;;;;-1.31;100.00;94962.31;5073356;28;20456;-74
2023/03/11 05:04:51;;;;;;;2.67;2.47;;;;;;;-1.58;100.00;94946.69;5060211;28;20810;-74
2023/03/11 05:07:18;;;;;;;1.43;1.33;;;;;;;-1.48;100.00;94973.19;5067581;28;20483;-74
2023/03/11 05:09:45;;;;;;;1.80;1.70;;;;;;;-1.67;100.00;94946.56;5075846;28;20436;-74
2023/03/11 05:12:12;;;;;;;3.33;1.60;;;;;;;-1.39;100.00;94990.69;5083879;28;20452;-74
2023/03/11 05:14:41;;;;;;;1.70;1.60;;;;;;;-1.57;100.00;94968.94;5059917;28;20443;-74
2023/03/11 05:17:10;;;;;;;2.23;1.73;;;;;;;-1.40;100.00;95002.13;5066613;28;20471;-74
2023/03/11 05:19:37;;;;;;;1.33;1.23;;;;;;;-1.57;100.00;94997.44;5059705;28;20428;-74
2023/03/11 05:22:17;;;;;;;1.63;1.53;;;;;;;-1.51;100.00;94994.50;5085285;28;20988;-74
2023/03/11 05:24:45;;;;;;;2.37;2.17;;;;;;;-1.28;100.00;95013.59;5079469;28;20435;-74
2023/03/11 05:27:16;;;;;;;1.73;1.63;;;;;;;-1.28;100.00;95007.63;5080623;28;20514;-74
2023/03/11 05:29:45;;;;;;;1.87;1.67;;;;;;;-1.28;100.00;95018.00;5060077;28;20454;-74
2023/03/11 05:32:13;;;;;;;1.30;1.20;;;;;;;-1.23;100.00;95004.94;5056188;28;20466;-74
2023/03/11 05:34:42;;;;;;;1.50;1.40;;;;;;;-1.50;100.00;94982.31;5072730;28;20448;-74
2023/03/11 05:37:09;;;;;;;1.40;1.30;;;;;;;-1.15;100.00;95042.44;5072621;28;20444;-74
2023/03/11 05:39:37;;;;;;;1.83;1.73;;;;;;;-1.56;100.00;94988.63;5065704;28;20428;-74
2023/03/11 05:42:05;;;;;;;1.70;1.43;;;;;;;-1.42;100.00;95036.09;5089110;28;20448;-74
2023/03/11 05:44:32;;;;;;;2.90;1.60;;;;;;;-1.28;100.00;95038.75;5067813;28;20436;-74
2023/03/11 05:47:00;;;;;;;1.77;1.63;;;;;;;-1.28;100.00;95049.88;5069504;28;20489;-74
2023/03/11 05:49:27;;;;;;;1.70;1.60;;;;;;;-1.51;100.00;95046.31;5081365;28;20827;-74
2023/03/11 05:51:54;;;;;;;1.53;1.43;;;;;;;-1.59;100.00;95030.66;5062540;28;20440;-74
2023/03/11 05:54:25;;;;;;;2.30;1.77;;;;;;;-1.42;100.00;95062.00;5066954;28;20489;-74
2023/03/11 05:56:54;;;;;;;2.00;1.80;;;;;;;-1.69;100.00;95016.00;5075462;28;20977;-74
2023/03/11 05:59:22;;;;;;;1.60;1.50;;;;;;;-1.23;100.00;95067.16;5082174;28;20432;-74
2023/03/11 06:01:55;;;;;;;1.77;1.67;;;;;;;-1.73;100.00;95014.28;5090038;28;20493;-74
2023/03/11 06:04:23;;;;;;;2.30;1.97;;;;;;;-1.55;100.00;95076.44;5064201;28;20443;-74
2023/03/11 06:06:50;;;;;;;1.80;1.60;;;;;;;-1.52;100.00;95049.19;5071953;28;20511;-74
2023/03/11 06:09:19;;;;;;;1.60;1.50;;;;;;;-1.85;100.00;95001.75;5068300;28;20815;-74
2023/03/11 06:11:46;;;;;;;1.50;1.40;;;;;;;-1.60;100.00;95063.56;5092056;28;20526;-76
2023/03/11 06:14:15;;;;;;;1.53;1.43;;;;;;;-1.57;100.00;95067.41;5075683;28;20439;-76
2023/03/11 06:16:43;;;;;;;2.00;1.80;;;;;;;-1.71;100.00;95061.38;5092100;28;20443;-76
2023/03/11 06:19:11;;;;;;;5.53;1.70;;;;;;;-1.97;100.00;95064.28;5075589;28;20862;-76
2023/03/11 06:21:41;;;;;;;1.77;1.67;;;;;;;-1.54;100.00;95097.94;5092127;28;20500;-76
2023/03/11 06:24:08;;;;;;;1.47;1.37;;;;;;;-2.02;100.00;95037.69;5075330;28;20459;-76
2023/03/11 06:26:35;;;;;;;1.60;1.50;;;;;;;-1.57;100.00;95095.91;5084465;28;20440;-76
2023/03/11 06:29:03;;;;;;;1.60;1.50;;;;;;;-1.57;100.00;95114.06;5055212;28;20564;-76
2023/03/11 06:31:30;;;;;;;1.40;1.30;;;;;;;-1.98;100.00;95070.53;5071696;28;20444;-76
2023/03/11 06:34:05;;;;;;;1.80;1.60;;;;;;;-1.74;100.00;95105.94;5071767;28;20439;-76
2023/03/11 06:36:32;;;;;;;2.10;1.90;;;;;;;-1.92;100.00;95103.06;5071494;28;20444;-76
2023/03/11 06:38:59;;;;;;;2.00;1.80;;;;;;;-1.79;100.00;95115.34;5061440;28;20431;-76
2023/03/11 06:41:26;;;;;;;1.37;1.27;;;;;;;-1.92;100.00;95115.25;5071587;28;20478;-76
2023/03/11 06:43:58;;;;;;;6.63;2.07;;;;;;;-1.76;100.00;95115.81;5071242;28;20474;-76
2023/03/11 06:46:26;;;;;;;2.10;2.00;;;;;;;-1.92;100.00;95134.13;5081157;28;20966;-76
2023/03/11 06:48:54;;;;;;;1.60;1.50;;;;;;;-1.99;100.00;95120.00;5073576;28;20460;-76
2023/03/11 06:51:24;;;;;;;2.17;1.37;;;;;;;-1.68;100.00;95152.25;5055154;28;20486;-76
2023/03/11 06:53:52;;;;;;;1.30;1.20;;;;;;;-1.99;100.00;95115.59;5071153;28;20509;-76
2023/03/11 06:56:21;;;;;;;1.80;1.70;;;;;;;-1.62;100.00;95164.09;5071196;28;20983;-76
2023/03/11 06:58:54;;;;;;;2.27;1.90;;;;;;;-2.10;100.00;95081.28;5071234;28;20440;-76
2023/03/11 07:01:24;;;;;;;1.43;1.33;;;;;;;-1.52;100.00;95158.03;5071062;28;20955;-76
2023/03/11 07:03:53;;;;;;;2.17;1.77;;;;;;;-1.88;100.00;95106.63;5055076;28;20452;-76
2023/03/11 07:06:24;;;;;;;1.93;1.60;;;;;;;-1.57;100.00;95155.50;5068363;28;20560;-77
2023/03/11 07:08:56;;;;;;;2.30;1.47;;;;;;;-1.50;100.00;95143.72;5075114;28;20507;-77
2023/03/11 07:11:24;;;;;;;2.97;2.23;;;;;;;-1.39;100.00;95183.25;5091154;28;20431;-76
2023/03/11 07:13:55;;;;;;;1.57;1.47;;;;;;;-1.45;100.00;95155.88;5090505;28;20474;-77
2023/03/11 07:16:25;;;;;;;1.27;1.17;;;;;;;-1.13;100.00;95185.53;5090894;28;20546;-76
2023/03/11 07:18:59;;;;;;;2.10;1.57;;;;;;;-0.88;100.00;95199.97;5091151;28;20480;-77
2023/03/11 07:21:28;;;;;;;2.30;1.73;;;;;;;-0.88;100.00;95205.94;5092488;28;20856;-77
2023/03/11 07:23:57;;;;;;;1.57;1.47;;;;;;;-0.91;100.00;95216.88;5092316;28;20534;-76
2023/03/11 07:26:24;;;;;;;3.47;1.30;;;;;;;-1.21;100.00;95194.69;5092188;28;20430;-76
2023/03/11 07:28:53;;;;;;;2.50;2.30;;;;;;;-0.73;100.00;95213.50;5090927;28;20537;-76
2023/03/11 07:31:29;;;;;;;2.30;2.10;;;;;;;-0.55;100.00;95216.34;5092143;28;20428;-76
2023/03/11 07:33:58;;;;;;;5.90;2.97;;;;;;;-0.46;100.00;95232.81;5090856;28;20501;-76
2023/03/11 07:36:24;;;;;;;1.33;1.23;;;;;;;-0.90;100.00;95214.00;5092063;28;20480;-75
2023/03/11 07:39:03;;;;;;;2.70;1.40;;;;;;;-0.55;100.00;95235.28;5064947;28;20559;-76
2023/03/11 07:41:32;;;;;;;2.67;1.73;;;;;;;-0.61;100.00;95236.44;5070551;28;20475;-76
2023/03/11 07:44:01;;;;;;;3.00;2.70;;;;;;;-0.59;100.00;95242.09;5070482;28;20455;-76
2023/03/11 07:46:28;;;;;;;1.57;1.47;;;;;;;-0.93;100.00;95232.72;5080545;28;20427;-76
2023/03/11 07:48:55;;;;;;;1.67;1.57;;;;;;;-0.75;100.00;95248.56;5072311;28;21050;-76
2023/03/11 07:51:25;;;;;;;3.63;3.20;;;;;;;-1.74;100.00;95054.91;5059273;28;20804;-76
2023/03/11 07:53:54;;;;;;;10.30;9.13;;;;;;;-0.54;100.00;95255.00;5068807;28;20865;-76
2023/03/11 07:56:22;;;;;;;1.57;1.47;;;;;;;-0.68;100.00;95259.34;5070544;28;20874;-76
2023/03/11 07:58:50;;;;;;;2.20;1.63;;;;;;;-0.75;100.00;95262.31;5070256;28;20954;-76
2023/03/11 08:01:20;;;;;;;1.33;1.23;;;;;;;-0.77;100.00;95282.56;5054205;28;20489;-76
2023/03/11 08:03:49;;;;;;;8.53;2.00;;;;;;;-0.87;100.00;95254.16;5076568;28;20553;-76
2023/03/11 08:06:19;;;;;;;1.83;1.73;;;;;;;-0.46;100.00;95269.94;5091818;28;20434;-76
2023/03/11 08:08:46;;;;;;;1.90;1.80;;;;;;;-0.40;100.00;95279.22;5090366;28;20467;-75
2023/03/11 08:11:14;;;;;;;1.80;1.70;;;;;;;-0.42;100.00;95293.50;5073652;28;20526;-75
2023/03/11 08:13:42;;;;;;;3.60;3.17;;;;;;;-0.48;100.00;95308.41;5091728;28;20902;-76
2023/03/11 08:16:11;;;;;;;1.50;1.40;;;;;;;-0.51;100.00;95306.38;5090488;28;20435;-76
2023/03/11 08:18:38;;;;;;;2.83;1.50;;;;;;;-0.87;100.00;95250.78;5091975;28;20473;-76
2023/03/11 08:21:05;;;;;;;1.47;1.37;;;;;;;-0.62;100.00;95269.38;5073559;28;20526;-76
2023/03/11 08:23:32;;;;;;;3.03;2.23;;;;;;;-0.64;100.00;95286.31;5091767;28;20480;-76
2023/03/11 08:26:03;;;;;;;1.63;1.53;;;;;;;-0.67;100.00;95285.03;5075932;28;20461;-76
2023/03/11 08:28:30;;;;;;;2.70;2.00;;;;;;;-0.46;100.00;95318.50;5085855;28;20455;-76
2023/03/11 08:30:56;;;;;;;1.70;1.60;;;;;;;-0.51;100.00;95321.16;5094027;28;20529;-76
2023/03/11 08:33:23;;;;;;;2.43;1.93;;;;;;;-1.09;100.00;95269.47;5094266;28;20938;-76
2023/03/11 08:35:50;;;;;;;2.57;1.90;;;;;;;-0.92;100.00;95300.94;5077080;28;20450;-76
2023/03/11 08:38:16;;;;;;;2.13;1.30;;;;;;;-0.72;100.00;95311.03;5068879;28;20441;-76
2023/03/11 08:40:43;;;;;;;2.13;1.33;;;;;;;-0.80;100.00;95293.53;5083937;28;20520;-76
2023/03/11 08:43:14;;;;;;;1.53;1.43;;;;;;;-0.26;100.00;95330.44;5075844;28;20459;-76
2023/03/11 08:45:43;;;;;;;1.53;1.43;;;;;;;-0.28;100.00;95335.13;5093747;28;20484;-76
2023/03/11 08:48:12;;;;;;;2.50;1.93;;;;;;;-0.46;100.00;95305.50;5081370;28;20459;-76
2023/03/11 08:50:40;;;;;;;1.10;1.00;;;;;;;-0.31;100.00;95346.84;5062490;28;20442;-76
2023/03/11 08:53:21;;;;;;;1.57;1.47;;;;;;;-0.28;100.00;95332.50;5079348;28;20455;-76
2023/03/11 08:55:49;;;;;;;1.67;1.37;;;;;;;-0.22;100.00;95365.94;5056835;28;20916;-76
2023/03/11 08:58:16;;;;;;;1.53;1.43;;;;;;;-0.48;100.00;95346.56;5054594;28;20485;-76
2023/03/11 09:00:43;;;;;;;2.03;1.40;;;;;;;-0.69;100.00;95346.03;5073292;28;20428;-76
2023/03/11 09:03:10;;;;;;;2.17;1.97;;;;;;;-0.65;100.00;95345.22;5073123;28;20464;-76
2023/03/11 09:05:37;;;;;;;1.60;1.50;;;;;;;-0.53;100.00;95347.41;5056747;28;20463;-76
2023/03/11 09:08:04;;;;;;;1.60;1.50;;;;;;;-0.27;100.00;95329.63;5056694;28;20467;-76
2023/03/11 09:10:31;;;;;;;5.60;2.03;;;;;;;0.05;100.00;95367.13;5074452;28;20519;-76
2023/03/11 09:12:58;;;;;;;2.73;1.80;;;;;;;-0.15;100.00;95344.78;5073128;28;20987;-76
2023/03/11 09:15:25;;;;;;;2.00;1.80;;;;;;;0.02;100.00;95355.47;5056470;28;20438;-76
2023/03/11 09:17:51;;;;;;;1.60;1.50;;;;;;;-0.37;100.00;95369.50;5056425;28;20464;-76
2023/03/11 09:20:18;;;;;;;1.60;1.50;;;;;;;-0.88;100.00;95314.09;5073108;28;20424;-76
2023/03/11 09:22:45;;;;;;;1.90;1.43;;;;;;;-0.64;100.00;95317.44;5089736;28;20494;-76
2023/03/11 09:25:12;;;;;;;2.23;1.30;;;;;;;-0.27;100.00;95365.97;5084268;28;20440;-76
2023/03/11 09:27:40;;;;;;;1.90;1.80;;;;;;;-0.12;100.00;95393.59;5074179;28;20882;-76
2023/03/11 09:30:08;;;;;;;1.80;1.70;;;;;;;-0.16;100.00;95401.16;5056212;28;20475;-76
2023/03/11 09:32:35;;;;;;;1.43;1.27;;;;;;;-0.13;100.00;95387.63;5072949;28;20456;-77
2023/03/11 09:35:02;;;;;;;2.13;1.77;;;;;;;0.09;100.00;95401.88;5072591;28;20979;-76
2023/03/11 09:37:29;;;;;;;1.50;1.40;;;;;;;-0.04;100.00;95357.34;5055846;28;20440;-76
2023/03/11 09:39:55;;;;;;;1.33;1.23;;;;;;;0.13;100.00;95382.03;5067059;28;20433;-76
2023/03/11 09:42:42;;;;;;;1.30;1.20;;;;;;;0.35;100.00;95408.22;5052568;28;20511;-76
2023/03/11 09:45:22;;;;;;;1.63;1.53;;;;;;;0.42;100.00;95413.84;5067587;28;20813;-76
2023/03/11 09:48:31;;;;;;;3.50;1.33;;;;;;;0.33;100.00;95419.97;5069194;28;20531;-77
2023/03/11 09:51:07;;;;;;;1.43;1.33;;;;;;;0.39;100.00;95419.59;5058839;28;20435;-75
2023/03/11 09:53:41;;;;;;;1.30;1.20;;;;;;;0.34;100.00;95422.28;5062235;28;20498;-75
2023/03/11 09:56:15;;;;;;;1.93;1.00;;;;;;;0.40;100.00;95418.56;5081981;28;20440;-75
2023/03/11 09:58:44;;;;;;;1.57;1.20;;;;;;;0.38;100.00;95397.25;5069310;28;20432;-75
2023/03/11 10:01:19;;;;;;;1.10;0.97;;;;;;;0.42;100.00;95426.84;5072435;28;20428;-75
2023/03/11 10:03:48;;;;;;;1.50;1.33;;;;;;;0.43;100.00;95402.41;5060518;28;20873;-75
2023/03/11 10:06:24;;;;;;;2.40;1.20;;;;;;;0.59;100.00;95437.50;5071992;28;20851;-75
2023/03/11 10:08:53;;;;;;;1.50;1.40;;;;;;;0.96;100.00;95448.88;5073473;28;20448;-75
2023/03/11 10:11:46;;;;;;;1.43;1.30;;;;;;;0.61;100.00;95432.00;5071891;28;20471;-75
2023/03/11 10:14:19;;;;;;;2.30;1.30;;;;;;;0.90;100.00;95447.41;5058387;28;20440;-75
2023/03/11 10:17:21;;;;;;;2.47;1.33;;;;;;;0.28;100.00;95449.41;5058773;28;20529;-75
2023/03/11 10:20:03;;;;;;;1.57;1.47;;;;;;;0.19;100.00;95449.28;5068840;28;20850;-75
2023/03/11 10:22:46;;;;;;;1.30;1.20;;;;;;;-0.05;100.00;95425.94;5085302;28;20566;-75
2023/03/11 10:25:16;;;;;;;4.20;2.10;;;;;;;0.29;100.00;95445.75;5081843;28;20435;-75
2023/03/11 10:27:54;;;;;;;1.27;1.17;;;;;;;0.24;100.00;95449.19;5075955;28;20474;-75
2023/03/11 10:30:51;;;;;;;1.40;1.30;;;;;;;-0.03;100.00;95446.44;5083717;28;20454;-75
2023/03/11 10:33:27;;;;;;;1.80;1.50;;;;;;;0.12;100.00;95424.69;5082928;28;20915;-75
2023/03/11 10:35:57;;;;;;;1.80;1.70;;;;;;;0.45;100.00;95436.69;5072944;28;20482;-75
2023/03/11 10:38:31;;;;;;;5.50;1.97;;;;;;;0.52;100.00;95441.50;5067651;28;20409;-75
2023/03/11 10:41:02;;;;;;;2.80;2.30;;;;;;;0.61;100.00;95445.00;5074130;28;20455;-75
2023/03/11 10:43:40;;;;;;;1.90;1.53;;;;;;;0.48;100.00;95440.53;5084855;28;21013;-75
2023/03/11 10:46:17;;;;;;;3.20;2.77;;;;;;;0.55;100.00;95449.53;5078599;28;20458;-75
2023/03/11 10:48:44;;;;;;;3.80;2.23;;;;;;;0.44;100.00;95427.34;5093865;28;20462;-75
2023/03/11 10:51:21;;;;;;;3.80;2.13;;;;;;;0.74;100.00;95448.72;5081542;28;20420;-75
2023/03/11 10:53:56;;;;;;;2.40;1.70;;;;;;;0.44;100.00;95434.38;5072479;28;20444;-75
2023/03/11 10:56:34;;;;;;;4.37;1.67;;;;;;;0.61;100.00;95452.03;5084021;28;20435;-75
2023/03/11 10:59:04;;;;;;;3.13;1.40;;;;;;;-0.04;100.00;95385.16;5059259;28;20424;-75
2023/03/11 11:01:31;;;;;;;1.93;1.73;;;;;;;0.52;100.00;95463.06;5071000;28;20451;-75
2023/03/11 11:04:00;;;;;;;2.33;1.40;;;;;;;0.45;100.00;95451.50;5080716;28;20450;-75
2023/03/11 11:06:27;;;;;;;2.70;1.27;;;;;;;0.65;100.00;95468.59;5089203;28;20546;-75
2023/03/11 11:09:05;;;;;;;2.73;1.50;;;;;;;0.47;100.00;95442.34;5081348;28;20455;-75
2023/03/11 11:11:35;;;;;;;2.03;1.93;;;;;;;0.82;100.00;95467.06;5078868;28;20481;-75
2023/03/11 11:14:02;;;;;;;1.50;1.40;;;;;;;0.41;100.00;95442.72;5080021;28;20524;-75
2023/03/11 11:16:31;;;;;;;4.40;2.50;;;;;;;0.37;100.00;95460.69;5084650;28;20419;-75
2023/03/11 11:19:04;;;;;;;2.67;2.47;;;;;;;0.67;100.00;95475.09;5054284;28;20439;-75
2023/03/11 11:21:36;;;;;;;1.83;1.73;;;;;;;0.49;100.00;95484.44;5070957;28;20944;-75
2023/03/11 11:24:13;;;;;;;1.50;1.40;;;;;;;0.53;100.00;95471.66;5070905;28;20498;-75
2023/03/11 11:26:40;;;;;;;1.77;1.40;;;;;;;0.34;100.00;95440.47;5082490;28;20819;-75
2023/03/11 11:29:13;;;;;;;1.40;1.30;;;;;;;0.72;100.00;95466.44;5055998;28;21096;-75
2023/03/11 11:31:43;;;;;;;2.87;1.43;;;;;;;0.91;100.00;95466.38;5055603;28;20441;-75
2023/03/11 11:34:25;;;;;;;1.67;1.57;;;;;;;1.02;100.00;95467.75;5081334;28;20876;-75
2023/03/11 11:36:55;;;;;;;2.10;1.80;;;;;;;0.94;100.00;95471.81;5083402;28;20427;-76
2023/03/11 11:39:26;;;;;;;1.63;1.23;;;;;;;0.81;100.00;95469.94;5064394;28;20442;-75